sensor_id;sensor_type;location;lat;lon;timestamp;pressure;altitude;pressure_sealevel;temperature;humidity
57086;BME280;42964;42.910;23.792;2023-04-27T00:01:10;97331.19;;;11.05;49.62
57086;BME280;42964;42.910;23.792;2023-04-27T00:06:10;97332.94;;;11.03;49.74
57086;BME280;42964;42.910;23.792;2023-04-27T00:11:09;97339.03;;;11.03;49.29
57086;BME280;42964;42.910;23.792;2023-04-27T00:16:08;97339.88;;;11.01;49.35
57086;BME280;42964;42.910;23.792;2023-04-27T00:21:08;97309.75;;;10.83;49.43
57086;BME280;42964;42.910;23.792;2023-04-27T00:26:07;97311.47;;;10.84;49.48
57086;BME280;42964;42.910;23.792;2023-04-27T00:31:06;97342.47;;;11.01;49.13
57086;BME280;42964;42.910;23.792;2023-04-27T00:36:05;97346.84;;;10.97;48.36
57086;BME280;42964;42.910;23.792;2023-04-27T00:41:05;97348.56;;;10.98;48.96
57086;BME280;42964;42.910;23.792;2023-04-27T00:46:04;97344.22;;;11.03;49.74
57086;BME280;42964;42.910;23.792;2023-04-27T00:51:04;97345.97;;;11.00;49.49
57086;BME280;42964;42.910;23.792;2023-04-27T00:56:04;97356.44;;;10.86;49.87
57086;BME280;42964;42.910;23.792;2023-04-27T01:01:04;97353.06;;;10.75;49.62
57086;BME280;42964;42.910;23.792;2023-04-27T01:06:03;97360.09;;;10.60;49.89
57086;BME280;42964;42.910;23.792;2023-04-27T01:11:02;97355.75;;;10.62;50.36
57086;BME280;42964;42.910;23.792;2023-04-27T01:16:01;97354.09;;;10.55;50.07
57086;BME280;42964;42.910;23.792;2023-04-27T01:21:00;97362.78;;;10.48;50.31
57086;BME280;42964;42.910;23.792;2023-04-27T01:25:59;97354.16;;;10.45;50.58
57086;BME280;42964;42.910;23.792;2023-04-27T01:30:59;97360.22;;;10.45;50.51
57086;BME280;42964;42.910;23.792;2023-04-27T01:35:58;97361.09;;;10.46;50.61
57086;BME280;42964;42.910;23.792;2023-04-27T01:40:57;97361.94;;;10.46;50.64
57086;BME280;42964;42.910;23.792;2023-04-27T01:46:11;97290.50;;;10.01;51.89
57086;BME280;42964;42.910;23.792;2023-04-27T01:51:10;97360.34;;;10.24;51.20
57086;BME280;42964;42.910;23.792;2023-04-27T01:56:09;97353.59;;;9.95;50.86
57086;BME280;42964;42.910;23.792;2023-04-27T02:01:08;97366.56;;;9.96;51.00
57086;BME280;42964;42.910;23.792;2023-04-27T02:06:07;97368.34;;;9.87;51.31
57086;BME280;42964;42.910;23.792;2023-04-27T02:11:07;97353.72;;;9.67;50.98
57086;BME280;42964;42.910;23.792;2023-04-27T02:16:06;97368.38;;;9.70;51.68
57086;BME280;42964;42.910;23.792;2023-04-27T02:21:09;97352.94;;;9.45;50.86
57086;BME280;42964;42.910;23.792;2023-04-27T02:26:17;97379.66;;;9.55;51.24
57086;BME280;42964;42.910;23.792;2023-04-27T02:31:17;97375.38;;;9.45;53.33
57086;BME280;42964;42.910;23.792;2023-04-27T02:36:16;97378.00;;;9.40;53.75
57086;BME280;42964;42.910;23.792;2023-04-27T02:41:15;97382.31;;;9.33;54.66
57086;BME280;42964;42.910;23.792;2023-04-27T02:46:13;97383.16;;;9.28;54.92
57086;BME280;42964;42.910;23.792;2023-04-27T02:51:13;97396.09;;;9.25;56.00
57086;BME280;42964;42.910;23.792;2023-04-27T02:56:11;97393.50;;;9.20;56.25
57086;BME280;42964;42.910;23.792;2023-04-27T03:01:10;97398.72;;;9.19;57.15
57086;BME280;42964;42.910;23.792;2023-04-27T03:06:09;97402.16;;;9.19;58.20
57086;BME280;42964;42.910;23.792;2023-04-27T03:11:08;97410.78;;;9.17;57.96
57086;BME280;42964;42.910;23.792;2023-04-27T03:16:09;97415.09;;;9.14;58.55
57086;BME280;42964;42.910;23.792;2023-04-27T03:21:09;97427.19;;;9.12;56.48
57086;BME280;42964;42.910;23.792;2023-04-27T03:26:11;97406.47;;;9.03;56.13
57086;BME280;42964;42.910;23.792;2023-04-27T03:31:13;97412.53;;;8.98;55.77
57086;BME280;42964;42.910;23.792;2023-04-27T03:36:12;97429.78;;;9.00;55.06
57086;BME280;42964;42.910;23.792;2023-04-27T03:41:11;97429.78;;;8.99;54.99
57086;BME280;42964;42.910;23.792;2023-04-27T03:46:10;97435.81;;;8.98;54.88
57086;BME280;42964;42.910;23.792;2023-04-27T03:51:09;97442.72;;;8.86;57.27
57086;BME280;42964;42.910;23.792;2023-04-27T03:56:08;97440.97;;;8.87;59.17
57086;BME280;42964;42.910;23.792;2023-04-27T04:01:07;97438.41;;;8.84;60.09
57086;BME280;42964;42.910;23.792;2023-04-27T04:06:07;97450.50;;;8.96;60.28
57086;BME280;42964;42.910;23.792;2023-04-27T04:11:06;97462.50;;;8.69;60.51
57086;BME280;42964;42.910;23.792;2023-04-27T04:16:07;97462.53;;;8.84;60.79
57086;BME280;42964;42.910;23.792;2023-04-27T04:21:08;97475.47;;;8.70;61.60
57086;BME280;42964;42.910;23.792;2023-04-27T04:26:08;97480.66;;;8.81;62.04
57086;BME280;42964;42.910;23.792;2023-04-27T04:31:07;97471.16;;;8.89;62.49
57086;BME280;42964;42.910;23.792;2023-04-27T04:36:07;97480.66;;;9.04;61.08
57086;BME280;42964;42.910;23.792;2023-04-27T04:41:06;97489.34;;;9.29;60.99
57086;BME280;42964;42.910;23.792;2023-04-27T04:46:05;97495.38;;;9.59;60.73
57086;BME280;42964;42.910;23.792;2023-04-27T04:51:05;97494.47;;;9.85;60.65
57086;BME280;42964;42.910;23.792;2023-04-27T04:56:09;97500.44;;;10.08;59.21
57086;BME280;42964;42.910;23.792;2023-04-27T05:01:08;97510.75;;;10.20;57.69
57086;BME280;42964;42.910;23.792;2023-04-27T05:06:07;97512.59;;;9.88;60.53
57086;BME280;42964;42.910;23.792;2023-04-27T05:11:06;97515.22;;;9.68;62.12
57086;BME280;42964;42.910;23.792;2023-04-27T05:16:05;97539.38;;;9.85;62.13
57086;BME280;42964;42.910;23.792;2023-04-27T05:21:12;97533.28;;;10.06;62.20
57086;BME280;42964;42.910;23.792;2023-04-27T05:26:16;97541.03;;;10.22;61.47
57086;BME280;42964;42.910;23.792;2023-04-27T05:31:15;97535.78;;;10.38;60.56
57086;BME280;42964;42.910;23.792;2023-04-27T05:36:14;97536.53;;;10.65;61.02
57086;BME280;42964;42.910;23.792;2023-04-27T05:41:13;97544.19;;;10.93;59.54
57086;BME280;42964;42.910;23.792;2023-04-27T05:46:13;97554.44;;;11.14;59.84
57086;BME280;42964;42.910;23.792;2023-04-27T05:51:12;97543.00;;;11.38;57.79
57086;BME280;42964;42.910;23.792;2023-04-27T05:56:11;97541.97;;;11.62;54.13
57086;BME280;42964;42.910;23.792;2023-04-27T06:01:10;97509.00;;;11.69;52.34
57086;BME280;42964;42.910;23.792;2023-04-27T06:06:10;97541.47;;;12.15;45.29
57086;BME280;42964;42.910;23.792;2023-04-27T06:11:09;97546.31;;;12.48;44.18
57086;BME280;42964;42.910;23.792;2023-04-27T06:16:08;97544.47;;;12.57;42.50
57086;BME280;42964;42.910;23.792;2023-04-27T06:21:07;97548.00;;;12.52;41.04
57086;BME280;42964;42.910;23.792;2023-04-27T06:26:05;97553.34;;;12.40;41.27
57086;BME280;42964;42.910;23.792;2023-04-27T06:31:04;97540.44;;;12.31;41.59
57086;BME280;42964;42.910;23.792;2023-04-27T06:36:04;97559.88;;;12.73;41.28
57086;BME280;42964;42.910;23.792;2023-04-27T06:41:03;97542.47;;;12.79;40.20
57086;BME280;42964;42.910;23.792;2023-04-27T06:46:03;97498.91;;;12.20;40.14
57086;BME280;42964;42.910;23.792;2023-04-27T06:51:02;97561.75;;;12.65;40.79
57086;BME280;42964;42.910;23.792;2023-04-27T06:56:01;97561.81;;;12.59;41.31
57086;BME280;42964;42.910;23.792;2023-04-27T07:01:03;97563.28;;;12.80;41.27
57086;BME280;42964;42.910;23.792;2023-04-27T07:06:02;97556.97;;;12.98;41.41
57086;BME280;42964;42.910;23.792;2023-04-27T07:11:01;97551.38;;;13.24;37.37
57086;BME280;42964;42.910;23.792;2023-04-27T07:16:00;97553.75;;;12.78;37.64
57086;BME280;42964;42.910;23.792;2023-04-27T07:20:59;97550.59;;;12.54;37.48
57086;BME280;42964;42.910;23.792;2023-04-27T07:25:58;97547.78;;;12.71;36.62
57086;BME280;42964;42.910;23.792;2023-04-27T07:30:57;97552.28;;;12.57;37.04
57086;BME280;42964;42.910;23.792;2023-04-27T07:35:56;97551.31;;;12.65;36.39
57086;BME280;42964;42.910;23.792;2023-04-27T07:40:57;97533.16;;;12.59;35.96
57086;BME280;42964;42.910;23.792;2023-04-27T07:45:56;97547.84;;;12.65;36.96
57086;BME280;42964;42.910;23.792;2023-04-27T07:50:56;97553.88;;;12.68;35.96
57086;BME280;42964;42.910;23.792;2023-04-27T07:55:55;97549.63;;;12.63;36.62
57086;BME280;42964;42.910;23.792;2023-04-27T08:00:54;97550.13;;;12.89;35.26
57086;BME280;42964;42.910;23.792;2023-04-27T08:05:53;97418.16;;;12.31;37.05
57086;BME280;42964;42.910;23.792;2023-04-27T08:10:52;97542.72;;;13.24;34.92
57086;BME280;42964;42.910;23.792;2023-04-27T08:15:51;97539.19;;;13.26;35.04
57086;BME280;42964;42.910;23.792;2023-04-27T08:20:56;97533.56;;;13.52;35.36
57086;BME280;42964;42.910;23.792;2023-04-27T08:25:54;97552.03;;;13.37;34.54
57086;BME280;42964;42.910;23.792;2023-04-27T08:30:54;97544.22;;;13.37;34.93
57086;BME280;42964;42.910;23.792;2023-04-27T08:35:53;97542.25;;;13.51;35.16
57086;BME280;42964;42.910;23.792;2023-04-27T08:40:52;97536.31;;;13.45;35.81
57086;BME280;42964;42.910;23.792;2023-04-27T08:45:51;97530.13;;;13.50;36.08
57086;BME280;42964;42.910;23.792;2023-04-27T08:50:51;97512.88;;;13.43;34.73
57086;BME280;42964;42.910;23.792;2023-04-27T08:55:52;97536.53;;;13.84;34.95
57086;BME280;42964;42.910;23.792;2023-04-27T09:00:53;97535.47;;;13.95;34.56
57086;BME280;42964;42.910;23.792;2023-04-27T09:05:52;97530.59;;;14.24;33.99
57086;BME280;42964;42.910;23.792;2023-04-27T09:10:52;97536.03;;;14.13;33.71
57086;BME280;42964;42.910;23.792;2023-04-27T09:15:52;97535.97;;;14.16;33.61
57086;BME280;42964;42.910;23.792;2023-04-27T09:20:51;97516.22;;;14.48;34.27
57086;BME280;42964;42.910;23.792;2023-04-27T09:25:50;97524.50;;;15.09;32.64
57086;BME280;42964;42.910;23.792;2023-04-27T09:30:59;97410.13;;;14.02;33.12
57086;BME280;42964;42.910;23.792;2023-04-27T09:36:01;97523.56;;;14.71;32.72
57086;BME280;42964;42.910;23.792;2023-04-27T09:41:00;97524.47;;;14.68;33.01
57086;BME280;42964;42.910;23.792;2023-04-27T09:45:59;97511.66;;;14.98;33.52
57086;BME280;42964;42.910;23.792;2023-04-27T09:50:59;97510.56;;;15.08;34.20
57086;BME280;42964;42.910;23.792;2023-04-27T10:01:20;97499.09;;;14.76;31.54
57086;BME280;42964;42.910;23.792;2023-04-27T10:11:41;97492.91;;;15.90;29.89
57086;BME280;42964;42.910;23.792;2023-04-27T10:22:00;97504.75;;;14.97;31.98
57086;BME280;42964;42.910;23.792;2023-04-27T10:27:08;97505.34;;;14.66;32.38
57086;BME280;42964;42.910;23.792;2023-04-27T10:32:17;97502.50;;;14.36;33.48
57086;BME280;42964;42.910;23.792;2023-04-27T10:37:17;97511.78;;;14.08;32.69
57086;BME280;42964;42.910;23.792;2023-04-27T10:42:27;97499.66;;;14.04;33.91
57086;BME280;42964;42.910;23.792;2023-04-27T10:52:47;97444.41;;;13.83;34.75
57086;BME280;42964;42.910;23.792;2023-04-27T10:57:52;97471.72;;;14.09;32.63
57086;BME280;42964;42.910;23.792;2023-04-27T11:02:56;97501.03;;;14.23;33.18
57086;BME280;42964;42.910;23.792;2023-04-27T11:08:05;97503.19;;;14.01;33.28
57086;BME280;42964;42.910;23.792;2023-04-27T11:13:10;97501.94;;;14.20;31.59
57086;BME280;42964;42.910;23.792;2023-04-27T11:18:09;97506.75;;;13.95;33.07
57086;BME280;42964;42.910;23.792;2023-04-27T11:23:08;97501.94;;;14.20;33.02
57086;BME280;42964;42.910;23.792;2023-04-27T11:28:17;97459.13;;;13.87;32.01
57086;BME280;42964;42.910;23.792;2023-04-27T11:33:16;97502.22;;;14.07;32.81
57086;BME280;42964;42.910;23.792;2023-04-27T11:38:16;97520.13;;;14.25;31.46
57086;BME280;42964;42.910;23.792;2023-04-27T11:43:15;97505.66;;;14.52;30.44
57086;BME280;42964;42.910;23.792;2023-04-27T11:48:15;97463.41;;;14.33;29.52
57086;BME280;42964;42.910;23.792;2023-04-27T11:53:14;97503.16;;;14.90;30.45
57086;BME280;42964;42.910;23.792;2023-04-27T11:58:15;97499.06;;;15.15;29.25
57086;BME280;42964;42.910;23.792;2023-04-27T12:03:14;97491.50;;;15.04;28.24
57086;BME280;42964;42.910;23.792;2023-04-27T12:08:13;97498.00;;;15.24;30.65
57086;BME280;42964;42.910;23.792;2023-04-27T12:13:11;97499.34;;;15.40;28.95
57086;BME280;42964;42.910;23.792;2023-04-27T12:18:11;97506.28;;;15.79;29.25
57086;BME280;42964;42.910;23.792;2023-04-27T12:23:10;97500.31;;;15.72;27.92
57086;BME280;42964;42.910;23.792;2023-04-27T12:28:09;97516.66;;;15.82;28.60
57086;BME280;42964;42.910;23.792;2023-04-27T12:33:09;97501.84;;;16.14;27.85
57086;BME280;42964;42.910;23.792;2023-04-27T12:38:09;97503.22;;;16.27;27.83
57086;BME280;42964;42.910;23.792;2023-04-27T12:43:08;97495.69;;;16.16;30.25
57086;BME280;42964;42.910;23.792;2023-04-27T12:48:07;97506.41;;;15.73;29.57
57086;BME280;42964;42.910;23.792;2023-04-27T12:53:06;97518.59;;;15.36;31.24
57086;BME280;42964;42.910;23.792;2023-04-27T12:58:05;97511.91;;;15.26;30.65
57086;BME280;42964;42.910;23.792;2023-04-27T13:03:05;97507.25;;;15.01;30.80
57086;BME280;42964;42.910;23.792;2023-04-27T13:08:04;97509.75;;;15.06;30.59
57086;BME280;42964;42.910;23.792;2023-04-27T13:13:03;97517.19;;;14.86;30.78
57086;BME280;42964;42.910;23.792;2023-04-27T13:18:02;97508.94;;;14.62;29.92
57086;BME280;42964;42.910;23.792;2023-04-27T13:23:03;97508.69;;;14.76;30.99
57086;BME280;42964;42.910;23.792;2023-04-27T13:28:03;97508.22;;;14.96;29.55
57086;BME280;42964;42.910;23.792;2023-04-27T13:33:02;97502.16;;;15.33;30.77
57086;BME280;42964;42.910;23.792;2023-04-27T13:38:01;97513.59;;;15.27;30.29
57086;BME280;42964;42.910;23.792;2023-04-27T13:43:00;97515.44;;;15.23;30.65
57086;BME280;42964;42.910;23.792;2023-04-27T13:47:59;97534.63;;;14.83;30.75
57086;BME280;42964;42.910;23.792;2023-04-27T13:53:00;97517.44;;;14.73;30.91
57086;BME280;42964;42.910;23.792;2023-04-27T13:57:59;97531.63;;;14.60;30.81
57086;BME280;42964;42.910;23.792;2023-04-27T14:02:58;97523.31;;;14.41;30.75
57086;BME280;42964;42.910;23.792;2023-04-27T14:07:58;97530.13;;;14.48;31.37
57086;BME280;42964;42.910;23.792;2023-04-27T14:12:57;97540.00;;;14.32;30.70
57086;BME280;42964;42.910;23.792;2023-04-27T14:17:56;97535.72;;;14.28;32.48
57086;BME280;42964;42.910;23.792;2023-04-27T14:22:54;97527.19;;;14.20;32.35
57086;BME280;42964;42.910;23.792;2023-04-27T14:27:54;97508.34;;;14.04;32.88
57086;BME280;42964;42.910;23.792;2023-04-27T14:32:52;97538.16;;;13.91;32.66
57086;BME280;42964;42.910;23.792;2023-04-27T14:37:52;97541.41;;;14.04;32.43
57086;BME280;42964;42.910;23.792;2023-04-27T14:42:51;97549.78;;;14.21;32.65
57086;BME280;42964;42.910;23.792;2023-04-27T14:47:50;97558.44;;;14.25;32.90
57086;BME280;42964;42.910;23.792;2023-04-27T14:52:48;97532.97;;;13.89;33.98
57086;BME280;42964;42.910;23.792;2023-04-27T14:57:47;97565.19;;;13.87;34.22
57086;BME280;42964;42.910;23.792;2023-04-27T15:02:46;97561.59;;;13.94;32.85
57086;BME280;42964;42.910;23.792;2023-04-27T15:07:45;97574.09;;;13.73;34.30
57086;BME280;42964;42.910;23.792;2023-04-27T15:12:44;97583.63;;;13.74;35.78
57086;BME280;42964;42.910;23.792;2023-04-27T15:17:43;97582.00;;;13.70;36.33
57086;BME280;42964;42.910;23.792;2023-04-27T15:22:42;97593.78;;;13.35;37.17
57086;BME280;42964;42.910;23.792;2023-04-27T15:27:41;97598.44;;;13.13;36.18
57086;BME280;42964;42.910;23.792;2023-04-27T15:32:40;97591.28;;;13.28;37.17
57086;BME280;42964;42.910;23.792;2023-04-27T15:37:39;97595.63;;;13.29;36.21
57086;BME280;42964;42.910;23.792;2023-04-27T15:42:38;97589.75;;;13.14;36.94
57086;BME280;42964;42.910;23.792;2023-04-27T15:47:37;97607.41;;;12.91;36.78
57086;BME280;42964;42.910;23.792;2023-04-27T15:52:36;97605.38;;;13.13;37.68
57086;BME280;42964;42.910;23.792;2023-04-27T15:57:35;97609.19;;;12.89;38.33
57086;BME280;42964;42.910;23.792;2023-04-27T16:02:34;97612.88;;;12.71;38.32
57086;BME280;42964;42.910;23.792;2023-04-27T16:07:34;97621.66;;;12.61;37.54
57086;BME280;42964;42.910;23.792;2023-04-27T16:12:34;97616.50;;;12.56;37.59
57086;BME280;42964;42.910;23.792;2023-04-27T16:17:33;97622.66;;;12.49;36.74
57086;BME280;42964;42.910;23.792;2023-04-27T16:22:34;97628.72;;;12.51;37.33
57086;BME280;42964;42.910;23.792;2023-04-27T16:27:33;97644.53;;;12.33;38.40
57086;BME280;42964;42.910;23.792;2023-04-27T16:32:32;97645.41;;;12.30;37.69
57086;BME280;42964;42.910;23.792;2023-04-27T16:37:31;97654.13;;;12.21;38.28
57086;BME280;42964;42.910;23.792;2023-04-27T16:42:31;97648.06;;;12.21;37.81
57086;BME280;42964;42.910;23.792;2023-04-27T16:47:30;97602.56;;;11.66;38.38
57086;BME280;42964;42.910;23.792;2023-04-27T16:52:29;97666.53;;;11.87;38.58
57086;BME280;42964;42.910;23.792;2023-04-27T16:57:28;97682.38;;;11.53;39.11
57086;BME280;42964;42.910;23.792;2023-04-27T17:02:27;97684.88;;;11.72;39.37
57086;BME280;42964;42.910;23.792;2023-04-27T17:07:26;97686.72;;;11.50;39.27
57086;BME280;42964;42.910;23.792;2023-04-27T17:12:26;97647.00;;;11.26;39.30
57086;BME280;42964;42.910;23.792;2023-04-27T17:17:25;97698.03;;;11.39;39.73
57086;BME280;42964;42.910;23.792;2023-04-27T17:22:24;97702.41;;;11.34;40.87
57086;BME280;42964;42.910;23.792;2023-04-27T17:27:23;97704.06;;;11.44;40.21
57086;BME280;42964;42.910;23.792;2023-04-27T17:32:22;97706.84;;;11.04;40.31
57086;BME280;42964;42.910;23.792;2023-04-27T17:37:21;97718.09;;;11.10;41.59
57086;BME280;42964;42.910;23.792;2023-04-27T17:42:20;97724.97;;;11.23;41.05
57086;BME280;42964;42.910;23.792;2023-04-27T17:47:19;97738.75;;;11.37;41.11
57086;BME280;42964;42.910;23.792;2023-04-27T17:52:19;97723.19;;;11.34;41.55
57086;BME280;42964;42.910;23.792;2023-04-27T17:57:18;97757.75;;;11.49;41.63
57086;BME280;42964;42.910;23.792;2023-04-27T18:02:17;97766.41;;;11.48;40.88
57086;BME280;42964;42.910;23.792;2023-04-27T18:07:17;97777.69;;;11.46;41.12
57086;BME280;42964;42.910;23.792;2023-04-27T18:12:16;97760.44;;;11.32;40.67
57086;BME280;42964;42.910;23.792;2023-04-27T18:17:15;97790.75;;;11.28;40.30
57086;BME280;42964;42.910;23.792;2023-04-27T18:22:14;97794.25;;;11.21;40.80
57086;BME280;42964;42.910;23.792;2023-04-27T18:27:14;97802.91;;;11.08;41.55
57086;BME280;42964;42.910;23.792;2023-04-27T18:32:16;97809.00;;;11.07;41.12
57086;BME280;42964;42.910;23.792;2023-04-27T18:37:15;97824.56;;;11.00;42.77
57086;BME280;42964;42.910;23.792;2023-04-27T18:42:14;97831.50;;;11.04;42.00
57086;BME280;42964;42.910;23.792;2023-04-27T18:47:13;97841.88;;;11.11;43.00
57086;BME280;42964;42.910;23.792;2023-04-27T18:52:12;97842.75;;;11.10;43.26
57086;BME280;42964;42.910;23.792;2023-04-27T18:57:11;97845.34;;;11.07;44.09
57086;BME280;42964;42.910;23.792;2023-04-27T19:02:10;97789.09;;;10.56;43.98
57086;BME280;42964;42.910;23.792;2023-04-27T19:07:09;97865.25;;;10.83;44.66
57086;BME280;42964;42.910;23.792;2023-04-27T19:12:08;97866.97;;;10.69;44.49
57086;BME280;42964;42.910;23.792;2023-04-27T19:17:07;97874.75;;;10.59;45.23
57086;BME280;42964;42.910;23.792;2023-04-27T19:22:06;97881.66;;;10.36;46.15
57086;BME280;42964;42.910;23.792;2023-04-27T19:27:05;97881.59;;;10.13;47.60
57086;BME280;42964;42.910;23.792;2023-04-27T19:32:06;97888.38;;;9.86;44.48
57086;BME280;42964;42.910;23.792;2023-04-27T19:37:05;97821.72;;;9.38;42.59
57086;BME280;42964;42.910;23.792;2023-04-27T19:42:04;97888.31;;;9.63;41.45
57086;BME280;42964;42.910;23.792;2023-04-27T19:47:03;97886.63;;;9.79;41.99
57086;BME280;42964;42.910;23.792;2023-04-27T19:52:02;97890.16;;;9.87;41.92
57086;BME280;42964;42.910;23.792;2023-04-27T19:57:02;97891.03;;;9.97;41.32
57086;BME280;42964;42.910;23.792;2023-04-27T20:02:01;97895.41;;;10.09;42.29
57086;BME280;42964;42.910;23.792;2023-04-27T20:07:01;97905.78;;;10.12;42.48
57086;BME280;42964;42.910;23.792;2023-04-27T20:12:00;97891.09;;;10.08;43.02
57086;BME280;42964;42.910;23.792;2023-04-27T20:17:00;97896.25;;;10.06;43.06
57086;BME280;42964;42.910;23.792;2023-04-27T20:22:00;97891.94;;;10.01;42.43
57086;BME280;42964;42.910;23.792;2023-04-27T20:27:00;97888.38;;;9.86;41.80
57086;BME280;42964;42.910;23.792;2023-04-27T20:32:01;97903.13;;;9.92;41.99
57086;BME280;42964;42.910;23.792;2023-04-27T20:37:00;97918.66;;;9.89;42.41
57086;BME280;42964;42.910;23.792;2023-04-27T20:42:02;97917.78;;;9.90;43.00
57086;BME280;42964;42.910;23.792;2023-04-27T20:47:01;97922.06;;;9.80;43.20
57086;BME280;42964;42.910;23.792;2023-04-27T20:52:00;97925.47;;;9.71;43.71
57086;BME280;42964;42.910;23.792;2023-04-27T20:56:59;97925.41;;;9.56;46.10
57086;BME280;42964;42.910;23.792;2023-04-27T21:01:59;97930.47;;;9.36;47.10
57086;BME280;42964;42.910;23.792;2023-04-27T21:06:58;97933.72;;;9.15;46.81
57086;BME280;42964;42.910;23.792;2023-04-27T21:11:57;97912.00;;;8.96;46.71
57086;BME280;42964;42.910;23.792;2023-04-27T21:16:56;97931.81;;;8.91;46.96
57086;BME280;42964;42.910;23.792;2023-04-27T21:21:55;97927.47;;;8.90;46.45
57086;BME280;42964;42.910;23.792;2023-04-27T21:26:54;97936.97;;;8.89;46.95
57086;BME280;42964;42.910;23.792;2023-04-27T21:31:53;97931.78;;;8.83;47.56
57086;BME280;42964;42.910;23.792;2023-04-27T21:36:52;97891.75;;;8.46;47.69
57086;BME280;42964;42.910;23.792;2023-04-27T21:41:51;97935.88;;;8.64;48.67
57086;BME280;42964;42.910;23.792;2023-04-27T21:46:50;97933.19;;;8.55;49.08
57086;BME280;42964;42.910;23.792;2023-04-27T21:51:49;97929.63;;;8.42;49.87
57086;BME280;42964;42.910;23.792;2023-04-27T21:56:48;97931.16;;;8.23;51.37
57086;BME280;42964;42.910;23.792;2023-04-27T22:01:47;97872.81;;;7.71;51.29
57086;BME280;42964;42.910;23.792;2023-04-27T22:06:46;97944.72;;;8.02;50.95
57086;BME280;42964;42.910;23.792;2023-04-27T22:11:45;97923.72;;;7.78;51.97
57086;BME280;42964;42.910;23.792;2023-04-27T22:16:44;97937.41;;;7.71;52.41
57086;BME280;42964;42.910;23.792;2023-04-27T22:21:43;97947.50;;;7.54;53.55
57086;BME280;42964;42.910;23.792;2023-04-27T22:26:42;97947.13;;;7.29;53.30
57086;BME280;42964;42.910;23.792;2023-04-27T22:31:42;97941.94;;;7.28;53.19
57086;BME280;42964;42.910;23.792;2023-04-27T22:36:41;97940.00;;;7.14;54.25
57086;BME280;42964;42.910;23.792;2023-04-27T22:41:40;97942.50;;;7.10;54.15
57086;BME280;42964;42.910;23.792;2023-04-27T22:46:41;97946.59;;;6.94;54.96
57086;BME280;42964;42.910;23.792;2023-04-27T22:51:40;97944.78;;;6.90;54.91
57086;BME280;42964;42.910;23.792;2023-04-27T22:56:39;97944.50;;;6.74;56.28
57086;BME280;42964;42.910;23.792;2023-04-27T23:01:38;97945.25;;;6.66;57.88
57086;BME280;42964;42.910;23.792;2023-04-27T23:06:37;97942.75;;;6.25;60.06
57086;BME280;42964;42.910;23.792;2023-04-27T23:11:36;97944.34;;;6.18;59.85
57086;BME280;42964;42.910;23.792;2023-04-27T23:16:35;97944.06;;;6.04;61.12
57086;BME280;42964;42.910;23.792;2023-04-27T23:21:34;97934.53;;;5.98;60.80
57086;BME280;42964;42.910;23.792;2023-04-27T23:26:33;97936.16;;;5.93;61.56
57086;BME280;42964;42.910;23.792;2023-04-27T23:31:32;97941.97;;;5.85;60.73
57086;BME280;42964;42.910;23.792;2023-04-27T23:36:31;97934.28;;;5.86;60.22
57086;BME280;42964;42.910;23.792;2023-04-27T23:41:30;97935.91;;;5.83;59.73
57086;BME280;42964;42.910;23.792;2023-04-27T23:46:29;97933.22;;;5.76;60.14
57086;BME280;42964;42.910;23.792;2023-04-27T23:51:28;97942.53;;;5.70;59.52
57086;BME280;42964;42.910;23.792;2023-04-27T23:56:27;97944.22;;;5.68;60.89
